createdAt,value
2023-04-19T00:04:10.159Z,99235.61
2023-04-19T00:09:14.619Z,99230.50
2023-04-19T00:14:18.865Z,99228.54
2023-04-19T00:19:23.287Z,99225.59
2023-04-19T00:24:27.626Z,99219.77
2023-04-19T00:29:31.795Z,99215.30
2023-04-19T00:34:36.143Z,99210.86
2023-04-19T00:39:41.139Z,99203.53
2023-04-19T00:44:45.562Z,99198.70
2023-04-19T00:49:50.118Z,99194.36
2023-04-19T00:54:56.004Z,99186.24
2023-04-19T01:00:01.763Z,99180.06
2023-04-19T01:05:08.052Z,99170.96
2023-04-19T01:10:12.656Z,99166.77
2023-04-19T01:15:16.797Z,99160.99
2023-04-19T01:20:21.670Z,99155.04
2023-04-19T01:25:26.686Z,99151.01
2023-04-19T01:30:31.309Z,99146.69
2023-04-19T01:35:35.882Z,99145.48
2023-04-19T01:40:40.533Z,99140.48
2023-04-19T01:45:44.769Z,99137.80
2023-04-19T01:50:48.913Z,99134.19
2023-04-19T01:55:55.305Z,99124.17
2023-04-19T02:00:59.697Z,99117.42
2023-04-19T02:06:04.030Z,99111.35
2023-04-19T02:11:10.027Z,99104.67
2023-04-19T02:16:13.990Z,99099.23
2023-04-19T02:21:17.928Z,99095.13
2023-04-19T02:26:21.865Z,99089.64
2023-04-19T02:31:25.991Z,99086.94
2023-04-19T02:36:30.437Z,99082.84
2023-04-19T02:41:34.779Z,99084.03
2023-04-19T02:46:39.115Z,99081.46
2023-04-19T02:51:43.447Z,99079.07
2023-04-19T02:56:47.163Z,99081.19
2023-04-19T03:01:51.202Z,99078.39
2023-04-19T03:06:55.227Z,99073.52
2023-04-19T03:11:59.419Z,99070.24
2023-04-19T03:17:03.618Z,99063.80
2023-04-19T03:22:07.672Z,99061.19
2023-04-19T03:27:11.707Z,99055.57
2023-04-19T03:32:15.696Z,99047.95
2023-04-19T03:37:19.709Z,99040.37
2023-04-19T03:42:24.051Z,99036.77
2023-04-19T03:47:28.383Z,99035.77
2023-04-19T03:52:32.222Z,99030.70
2023-04-19T03:57:36.458Z,99032.53
2023-04-19T04:02:40.490Z,99030.95
2023-04-19T04:07:44.484Z,99027.59
2023-04-19T04:12:48.304Z,99021.68
2023-04-19T04:17:52.137Z,99025.75
2023-04-19T04:22:55.979Z,99018.27
2023-04-19T04:27:59.913Z,99020.39
2023-04-19T04:33:03.907Z,99021.19
2023-04-19T04:38:17.545Z,99017.01
2023-04-19T04:43:28.978Z,99016.05
2023-04-19T04:54:06.683Z,99010.52
2023-04-19T04:59:14.439Z,99012.19
2023-04-19T05:04:22.104Z,99007.73
2023-04-19T05:09:29.900Z,99002.29
2023-04-19T05:14:38.893Z,98999.83
2023-04-19T05:19:47.042Z,99000.86
2023-04-19T05:24:55.305Z,99006.67
2023-04-19T05:30:02.955Z,99005.75
2023-04-19T05:35:12.330Z,99012.36
2023-04-19T05:40:20.178Z,99016.18
2023-04-19T05:45:27.995Z,99016.14
2023-04-19T05:50:36.978Z,99020.48
2023-04-19T05:55:45.822Z,99018.45
2023-04-19T06:00:54.189Z,99014.81
2023-04-19T06:06:01.896Z,99007.87
2023-04-19T06:11:22.914Z,99008.19
2023-04-19T06:16:34.340Z,99012.86
2023-04-19T06:21:42.189Z,99009.95
2023-04-19T06:26:50.278Z,99006.41
2023-04-19T06:31:57.829Z,99003.93
2023-04-19T06:37:05.375Z,99010.37
2023-04-19T06:42:12.713Z,99010.16
2023-04-19T06:47:20.201Z,99016.39
2023-04-19T06:52:27.577Z,99018.83
2023-04-19T06:57:35.192Z,99022.55
2023-04-19T07:02:42.493Z,99022.92
2023-04-19T07:07:49.922Z,99023.83
2023-04-19T07:12:57.228Z,99022.25
2023-04-19T07:18:04.940Z,99021.32
2023-04-19T07:23:12.419Z,99024.64
2023-04-19T07:28:19.863Z,99035.50
2023-04-19T07:33:28.513Z,99033.70
2023-04-19T07:38:36.079Z,99030.32
2023-04-19T07:43:43.589Z,99030.51
2023-04-19T07:48:51.573Z,99033.41
2023-04-19T07:53:58.829Z,99035.66
2023-04-19T07:59:08.975Z,99043.40
2023-04-19T08:04:18.422Z,99046.33
2023-04-19T08:09:26.923Z,99042.66
2023-04-19T08:14:43.742Z,99041.70
2023-04-19T08:19:55.333Z,99043.40
2023-04-19T08:25:02.896Z,99046.61
2023-04-19T08:30:12.443Z,99039.17
2023-04-19T08:35:20.404Z,99038.73
2023-04-19T08:40:27.885Z,99044.17
2023-04-19T08:45:37.315Z,99044.92
2023-04-19T08:51:01.211Z,99048.67
2023-04-19T08:56:21.137Z,99049.20
2023-04-19T09:01:36.739Z,99052.27
2023-04-19T09:06:44.552Z,99052.88
2023-04-19T09:11:52.490Z,99054.25
2023-04-19T09:17:18.206Z,99049.14
2023-04-19T09:22:25.573Z,99055.14
2023-04-19T09:27:34.665Z,99056.16
2023-04-19T09:32:51.847Z,99053.08
2023-04-19T09:38:06.610Z,99052.64
2023-04-19T09:43:44.030Z,99056.23
2023-04-19T09:48:40.521Z,99063.42
2023-04-19T09:53:48.483Z,99064.64
2023-04-19T09:59:01.578Z,99066.06
2023-04-19T10:04:33.619Z,99068.14
2023-04-19T10:09:54.174Z,99061.73
2023-04-19T10:15:02.356Z,99053.22
2023-04-19T10:20:14.939Z,99054.00
2023-04-19T10:25:31.741Z,99051.60
2023-04-19T10:30:53.695Z,99047.90
2023-04-19T10:36:02.457Z,99045.69
2023-04-19T10:41:17.352Z,99051.41
2023-04-19T10:52:00.448Z,99046.81
2023-04-19T10:57:10.644Z,99045.90
2023-04-19T11:02:34.050Z,99049.91
2023-04-19T11:07:45.217Z,99050.96
2023-04-19T11:12:54.597Z,99044.25
2023-04-19T11:18:12.670Z,99040.17
2023-04-19T11:23:20.999Z,99033.70
2023-04-19T11:28:29.772Z,99038.27
2023-04-19T11:33:38.261Z,99032.59
2023-04-19T11:38:50.353Z,99034.41
2023-04-19T11:43:57.659Z,99036.84
2023-04-19T11:49:05.011Z,99039.00
2023-04-19T11:54:18.620Z,99041.66
2023-04-19T11:59:26.379Z,99043.05
2023-04-19T12:04:33.758Z,99047.40
2023-04-19T12:09:42.416Z,99051.17
2023-04-19T12:14:55.999Z,99061.90
2023-04-19T12:20:04.664Z,99062.31
2023-04-19T12:25:12.830Z,99062.56
2023-04-19T12:30:20.066Z,99067.90
2023-04-19T12:35:28.108Z,99065.98
2023-04-19T12:40:36.449Z,99059.39
2023-04-19T12:45:43.791Z,99065.55
2023-04-19T12:50:51.340Z,99063.00
2023-04-19T12:55:58.358Z,99056.10
2023-04-19T13:01:03.971Z,99051.48
2023-04-19T13:06:13.669Z,99043.84
2023-04-19T13:11:23.781Z,99051.18
2023-04-19T13:16:31.276Z,99051.06
2023-04-19T13:21:38.668Z,99054.20
2023-04-19T13:26:47.587Z,99055.77
2023-04-19T13:31:54.895Z,99054.94
2023-04-19T13:37:02.140Z,99063.38
2023-04-19T13:42:10.093Z,99063.59
2023-04-19T13:47:17.351Z,99065.73
2023-04-19T13:52:24.736Z,99057.13
2023-04-19T13:57:32.145Z,99054.88
2023-04-19T14:02:40.679Z,99054.74
2023-04-19T14:07:48.223Z,99055.36
2023-04-19T14:12:55.618Z,99054.48
2023-04-19T14:18:03.743Z,99050.46
2023-04-19T14:23:11.090Z,99053.27
2023-04-19T14:28:18.447Z,99049.59
2023-04-19T14:33:25.755Z,99047.98
2023-04-19T14:38:33.795Z,99042.29
2023-04-19T14:43:40.965Z,99041.98
2023-04-19T14:48:48.565Z,99051.87
2023-04-19T14:53:55.624Z,99058.17
2023-04-19T14:59:02.881Z,99063.36
2023-04-19T15:04:10.445Z,99073.17
2023-04-19T15:09:18.337Z,99074.23
2023-04-19T15:14:25.811Z,99077.94
2023-04-19T15:19:33.014Z,99077.58
2023-04-19T15:24:40.635Z,99079.70
2023-04-19T15:29:49.324Z,99077.11
2023-04-19T15:34:56.629Z,99080.14
2023-04-19T15:40:04.485Z,99085.06
2023-04-19T15:45:13.041Z,99089.39
2023-04-19T15:50:20.220Z,99091.45
2023-04-19T15:55:27.533Z,99099.31
2023-04-19T16:00:34.768Z,99105.91
2023-04-19T16:05:43.643Z,99104.63
2023-04-19T16:10:51.329Z,99106.59
2023-04-19T16:15:58.874Z,99107.06
2023-04-19T16:21:06.826Z,99108.54
2023-04-19T16:26:14.334Z,99113.38
2023-04-19T16:31:21.583Z,99114.27
2023-04-19T16:36:29.074Z,99111.59
2023-04-19T16:41:36.646Z,99118.73
2023-04-19T16:46:44.294Z,99120.39
2023-04-19T16:51:51.860Z,99120.80
2023-04-19T16:56:59.199Z,99124.61
2023-04-19T17:02:08.888Z,99121.86
2023-04-19T17:07:16.762Z,99126.61
2023-04-19T17:12:25.927Z,99131.85
2023-04-19T17:17:34.202Z,99136.10
2023-04-19T17:22:41.649Z,99139.11
2023-04-19T17:27:49.251Z,99142.15
2023-04-19T17:32:56.798Z,99148.55
2023-04-19T17:38:06.391Z,99149.70
2023-04-19T17:43:15.436Z,99153.80
2023-04-19T17:48:22.802Z,99160.41
2023-04-19T17:53:30.199Z,99167.16
2023-04-19T17:58:37.509Z,99169.30
2023-04-19T18:03:45.202Z,99177.20
2023-04-19T18:08:53.449Z,99181.27
2023-04-19T18:14:01.971Z,99187.67
2023-04-19T18:19:09.378Z,99195.55
2023-04-19T18:24:16.894Z,99198.34
2023-04-19T18:29:24.601Z,99201.81
2023-04-19T18:34:32.345Z,99207.46
2023-04-19T18:39:39.622Z,99213.88
2023-04-19T18:44:52.680Z,99218.08
2023-04-19T18:50:05.973Z,99214.67
2023-04-19T18:55:14.223Z,99223.84
2023-04-19T19:00:22.045Z,99223.16
2023-04-19T19:05:30.660Z,99224.83
2023-04-19T19:11:07.184Z,99220.35
2023-04-19T19:16:08.209Z,99221.02
2023-04-19T19:21:15.624Z,99223.64
2023-04-19T19:26:22.837Z,99226.90
2023-04-19T19:31:30.134Z,99229.29
2023-04-19T19:36:38.056Z,99229.84
2023-04-19T19:46:56.762Z,99236.33
2023-04-19T19:52:04.835Z,99236.08
2023-04-19T19:58:06.869Z,99237.25
2023-04-19T20:02:54.195Z,99242.39
2023-04-19T20:08:10.520Z,99238.73
2023-04-19T20:13:18.157Z,99238.02
2023-04-19T20:18:25.345Z,99236.10
2023-04-19T20:23:32.851Z,99236.96
2023-04-19T20:28:39.970Z,99233.66
2023-04-19T20:33:47.943Z,99236.39
2023-04-19T20:38:57.075Z,99235.89
2023-04-19T20:44:05.245Z,99235.44
2023-04-19T20:49:12.311Z,99237.30
2023-04-19T20:54:19.430Z,99240.23
2023-04-19T21:05:05.027Z,99242.22
2023-04-19T21:10:13.905Z,99241.61
2023-04-19T21:15:22.489Z,99241.80
2023-04-19T21:20:30.162Z,99239.40
2023-04-19T21:25:37.655Z,99243.00
2023-04-19T21:30:45.212Z,99240.80
2023-04-19T21:35:52.723Z,99242.62
2023-04-19T21:41:00.343Z,99243.74
2023-04-19T21:46:08.163Z,99240.95
2023-04-19T21:51:16.299Z,99241.34
2023-04-19T21:56:23.886Z,99240.61
2023-04-19T22:01:31.128Z,99244.62
2023-04-19T22:06:39.502Z,99245.53
2023-04-19T22:11:47.006Z,99240.38
2023-04-19T22:16:55.452Z,99242.58
2023-04-19T22:22:02.963Z,99242.67
2023-04-19T22:27:10.367Z,99245.60
2023-04-19T22:32:17.503Z,99242.25
2023-04-19T22:37:24.847Z,99241.95
2023-04-19T22:42:32.248Z,99239.75
2023-04-19T22:47:39.718Z,99240.02
2023-04-19T22:52:47.298Z,99241.02
2023-04-19T22:57:54.686Z,99237.51
2023-04-19T23:03:02.245Z,99236.67
2023-04-19T23:08:09.790Z,99234.84
2023-04-19T23:13:17.495Z,99241.79
2023-04-19T23:18:25.057Z,99242.02
2023-04-19T23:23:33.028Z,99245.52
2023-04-19T23:28:40.395Z,99242.50
2023-04-19T23:33:47.775Z,99245.79
2023-04-19T23:38:55.030Z,99241.92
2023-04-19T23:44:02.459Z,99233.21
2023-04-19T23:49:09.864Z,99228.58
2023-04-19T23:54:21.092Z,99226.65
2023-04-19T23:59:29.298Z,99218.75
